sensor_id;sensor_type;location;lat;lon;timestamp;P1;durP1;ratioP1;P2;durP2;ratioP2
21334;SDS011;69435;52.670;13.544;2023-05-07T00:02:16;12.93;;;11.73;;
21334;SDS011;69435;52.670;13.544;2023-05-07T00:05:01;17.87;;;12.17;;
21334;SDS011;69435;52.670;13.544;2023-05-07T00:07:48;13.87;;;11.37;;
21334;SDS011;69435;52.670;13.544;2023-05-07T00:10:35;15.63;;;11.40;;
21334;SDS011;69435;52.670;13.544;2023-05-07T00:13:21;15.07;;;10.93;;
21334;SDS011;69435;52.670;13.544;2023-05-07T00:16:07;13.03;;;11.13;;
21334;SDS011;69435;52.670;13.544;2023-05-07T00:18:53;12.57;;;11.37;;
21334;SDS011;69435;52.670;13.544;2023-05-07T00:21:39;12.33;;;11.13;;
21334;SDS011;69435;52.670;13.544;2023-05-07T00:24:25;12.43;;;11.23;;
21334;SDS011;69435;52.670;13.544;2023-05-07T00:27:11;13.10;;;11.77;;
21334;SDS011;69435;52.670;13.544;2023-05-07T00:29:57;12.23;;;11.13;;
21334;SDS011;69435;52.670;13.544;2023-05-07T00:32:43;13.03;;;11.47;;
21334;SDS011;69435;52.670;13.544;2023-05-07T00:35:30;12.00;;;10.80;;
21334;SDS011;69435;52.670;13.544;2023-05-07T00:38:16;12.87;;;11.53;;
21334;SDS011;69435;52.670;13.544;2023-05-07T00:41:02;12.77;;;11.50;;
21334;SDS011;69435;52.670;13.544;2023-05-07T00:43:48;12.63;;;11.03;;
21334;SDS011;69435;52.670;13.544;2023-05-07T00:46:36;14.23;;;11.77;;
21334;SDS011;69435;52.670;13.544;2023-05-07T00:49:25;12.93;;;11.57;;
21334;SDS011;69435;52.670;13.544;2023-05-07T00:52:28;13.37;;;12.13;;
21334;SDS011;69435;52.670;13.544;2023-05-07T00:55:15;11.90;;;10.80;;
21334;SDS011;69435;52.670;13.544;2023-05-07T00:58:01;12.97;;;11.77;;
21334;SDS011;69435;52.670;13.544;2023-05-07T01:00:48;13.23;;;11.23;;
21334;SDS011;69435;52.670;13.544;2023-05-07T01:03:33;11.20;;;10.10;;
21334;SDS011;69435;52.670;13.544;2023-05-07T01:06:20;12.43;;;11.17;;
21334;SDS011;69435;52.670;13.544;2023-05-07T01:09:11;13.03;;;11.67;;
21334;SDS011;69435;52.670;13.544;2023-05-07T01:11:58;12.63;;;11.37;;
21334;SDS011;69435;52.670;13.544;2023-05-07T01:14:44;14.60;;;11.40;;
21334;SDS011;69435;52.670;13.544;2023-05-07T01:17:35;12.90;;;11.23;;
21334;SDS011;69435;52.670;13.544;2023-05-07T01:20:22;12.57;;;10.80;;
21334;SDS011;69435;52.670;13.544;2023-05-07T01:23:10;12.87;;;11.43;;
21334;SDS011;69435;52.670;13.544;2023-05-07T01:25:56;13.63;;;11.40;;
21334;SDS011;69435;52.670;13.544;2023-05-07T01:28:42;12.00;;;10.30;;
21334;SDS011;69435;52.670;13.544;2023-05-07T01:31:28;12.37;;;10.73;;
21334;SDS011;69435;52.670;13.544;2023-05-07T01:34:15;11.30;;;10.30;;
21334;SDS011;69435;52.670;13.544;2023-05-07T01:37:05;13.40;;;12.03;;
21334;SDS011;69435;52.670;13.544;2023-05-07T01:39:52;11.17;;;10.07;;
21334;SDS011;69435;52.670;13.544;2023-05-07T01:42:39;12.03;;;10.93;;
21334;SDS011;69435;52.670;13.544;2023-05-07T01:45:28;11.77;;;10.57;;
21334;SDS011;69435;52.670;13.544;2023-05-07T01:48:16;11.20;;;10.03;;
21334;SDS011;69435;52.670;13.544;2023-05-07T01:51:04;12.23;;;10.93;;
21334;SDS011;69435;52.670;13.544;2023-05-07T01:53:52;10.63;;;9.73;;
21334;SDS011;69435;52.670;13.544;2023-05-07T01:56:38;10.77;;;9.70;;
21334;SDS011;69435;52.670;13.544;2023-05-07T01:59:24;11.60;;;10.40;;
21334;SDS011;69435;52.670;13.544;2023-05-07T02:02:10;11.77;;;10.67;;
21334;SDS011;69435;52.670;13.544;2023-05-07T02:04:56;16.07;;;10.13;;
21334;SDS011;69435;52.670;13.544;2023-05-07T02:07:42;10.57;;;9.57;;
21334;SDS011;69435;52.670;13.544;2023-05-07T02:10:28;12.03;;;9.37;;
21334;SDS011;69435;52.670;13.544;2023-05-07T02:13:14;11.30;;;9.23;;
21334;SDS011;69435;52.670;13.544;2023-05-07T02:16:00;9.60;;;8.70;;
21334;SDS011;69435;52.670;13.544;2023-05-07T02:18:48;9.43;;;8.53;;
21334;SDS011;69435;52.670;13.544;2023-05-07T02:21:33;9.17;;;8.20;;
21334;SDS011;69435;52.670;13.544;2023-05-07T02:24:21;10.27;;;9.27;;
21334;SDS011;69435;52.670;13.544;2023-05-07T02:27:07;9.33;;;8.43;;
21334;SDS011;69435;52.670;13.544;2023-05-07T02:29:53;10.67;;;9.40;;
21334;SDS011;69435;52.670;13.544;2023-05-07T02:32:39;8.87;;;8.07;;
21334;SDS011;69435;52.670;13.544;2023-05-07T02:35:26;9.60;;;8.70;;
21334;SDS011;69435;52.670;13.544;2023-05-07T02:38:12;10.10;;;9.07;;
21334;SDS011;69435;52.670;13.544;2023-05-07T02:40:58;9.57;;;8.73;;
21334;SDS011;69435;52.670;13.544;2023-05-07T02:43:44;9.30;;;8.40;;
21334;SDS011;69435;52.670;13.544;2023-05-07T02:46:30;9.43;;;8.40;;
21334;SDS011;69435;52.670;13.544;2023-05-07T02:49:17;9.17;;;8.43;;
21334;SDS011;69435;52.670;13.544;2023-05-07T02:52:03;8.90;;;8.00;;
21334;SDS011;69435;52.670;13.544;2023-05-07T02:54:49;8.87;;;8.03;;
21334;SDS011;69435;52.670;13.544;2023-05-07T02:57:35;9.00;;;8.30;;
21334;SDS011;69435;52.670;13.544;2023-05-07T03:00:21;8.33;;;7.60;;
21334;SDS011;69435;52.670;13.544;2023-05-07T03:03:07;9.83;;;8.07;;
21334;SDS011;69435;52.670;13.544;2023-05-07T03:05:53;8.60;;;7.37;;
21334;SDS011;69435;52.670;13.544;2023-05-07T03:08:39;9.97;;;7.90;;
21334;SDS011;69435;52.670;13.544;2023-05-07T03:11:25;9.30;;;8.07;;
21334;SDS011;69435;52.670;13.544;2023-05-07T03:14:12;8.53;;;7.83;;
21334;SDS011;69435;52.670;13.544;2023-05-07T03:16:58;9.37;;;8.47;;
21334;SDS011;69435;52.670;13.544;2023-05-07T03:19:43;9.93;;;8.53;;
21334;SDS011;69435;52.670;13.544;2023-05-07T03:22:30;7.93;;;7.23;;
21334;SDS011;69435;52.670;13.544;2023-05-07T03:25:17;8.73;;;7.43;;
21334;SDS011;69435;52.670;13.544;2023-05-07T03:28:03;8.70;;;7.57;;
21334;SDS011;69435;52.670;13.544;2023-05-07T03:30:49;8.90;;;8.03;;
21334;SDS011;69435;52.670;13.544;2023-05-07T03:33:38;8.93;;;7.47;;
21334;SDS011;69435;52.670;13.544;2023-05-07T03:36:36;9.20;;;7.33;;
21334;SDS011;69435;52.670;13.544;2023-05-07T03:39:22;8.27;;;7.53;;
21334;SDS011;69435;52.670;13.544;2023-05-07T03:42:08;8.50;;;7.60;;
21334;SDS011;69435;52.670;13.544;2023-05-07T03:44:54;8.40;;;7.57;;
21334;SDS011;69435;52.670;13.544;2023-05-07T03:47:40;9.23;;;8.33;;
21334;SDS011;69435;52.670;13.544;2023-05-07T03:50:26;8.33;;;7.53;;
21334;SDS011;69435;52.670;13.544;2023-05-07T03:53:12;9.17;;;8.27;;
21334;SDS011;69435;52.670;13.544;2023-05-07T03:55:58;8.30;;;7.53;;
21334;SDS011;69435;52.670;13.544;2023-05-07T03:58:44;8.60;;;7.80;;
21334;SDS011;69435;52.670;13.544;2023-05-07T04:01:30;8.13;;;7.33;;
21334;SDS011;69435;52.670;13.544;2023-05-07T04:04:16;8.63;;;7.73;;
21334;SDS011;69435;52.670;13.544;2023-05-07T04:07:02;9.40;;;7.97;;
21334;SDS011;69435;52.670;13.544;2023-05-07T04:09:49;9.10;;;7.40;;
21334;SDS011;69435;52.670;13.544;2023-05-07T04:12:35;9.87;;;7.77;;
21334;SDS011;69435;52.670;13.544;2023-05-07T04:15:21;8.67;;;7.87;;
21334;SDS011;69435;52.670;13.544;2023-05-07T04:18:07;7.73;;;7.13;;
21334;SDS011;69435;52.670;13.544;2023-05-07T04:20:53;9.27;;;8.37;;
21334;SDS011;69435;52.670;13.544;2023-05-07T04:23:39;10.27;;;8.60;;
21334;SDS011;69435;52.670;13.544;2023-05-07T04:26:25;9.60;;;8.57;;
21334;SDS011;69435;52.670;13.544;2023-05-07T04:29:11;9.20;;;8.30;;
21334;SDS011;69435;52.670;13.544;2023-05-07T04:31:57;9.17;;;8.37;;
21334;SDS011;69435;52.670;13.544;2023-05-07T04:34:44;9.47;;;8.67;;
21334;SDS011;69435;52.670;13.544;2023-05-07T04:37:31;8.90;;;8.00;;
21334;SDS011;69435;52.670;13.544;2023-05-07T04:40:17;7.60;;;7.00;;
21334;SDS011;69435;52.670;13.544;2023-05-07T04:43:03;9.03;;;7.60;;
21334;SDS011;69435;52.670;13.544;2023-05-07T04:45:50;9.23;;;7.53;;
21334;SDS011;69435;52.670;13.544;2023-05-07T04:48:37;9.30;;;8.40;;
21334;SDS011;69435;52.670;13.544;2023-05-07T04:51:23;9.27;;;8.30;;
21334;SDS011;69435;52.670;13.544;2023-05-07T04:54:09;9.00;;;7.50;;
21334;SDS011;69435;52.670;13.544;2023-05-07T04:56:55;9.20;;;8.40;;
21334;SDS011;69435;52.670;13.544;2023-05-07T04:59:42;11.50;;;8.87;;
21334;SDS011;69435;52.670;13.544;2023-05-07T05:02:28;8.70;;;7.73;;
21334;SDS011;69435;52.670;13.544;2023-05-07T05:05:14;9.40;;;8.50;;
21334;SDS011;69435;52.670;13.544;2023-05-07T05:08:00;10.40;;;8.27;;
21334;SDS011;69435;52.670;13.544;2023-05-07T05:10:47;9.03;;;8.10;;
21334;SDS011;69435;52.670;13.544;2023-05-07T05:13:36;8.33;;;7.63;;
21334;SDS011;69435;52.670;13.544;2023-05-07T05:16:22;8.70;;;7.90;;
21334;SDS011;69435;52.670;13.544;2023-05-07T05:19:08;8.10;;;7.37;;
21334;SDS011;69435;52.670;13.544;2023-05-07T05:21:54;9.97;;;7.80;;
21334;SDS011;69435;52.670;13.544;2023-05-07T05:24:40;7.90;;;7.20;;
21334;SDS011;69435;52.670;13.544;2023-05-07T05:27:26;8.27;;;7.47;;
21334;SDS011;69435;52.670;13.544;2023-05-07T05:30:12;7.80;;;7.07;;
21334;SDS011;69435;52.670;13.544;2023-05-07T05:32:58;8.13;;;6.43;;
21334;SDS011;69435;52.670;13.544;2023-05-07T05:35:44;8.37;;;7.57;;
21334;SDS011;69435;52.670;13.544;2023-05-07T05:38:30;6.93;;;6.33;;
21334;SDS011;69435;52.670;13.544;2023-05-07T05:41:16;7.30;;;6.70;;
21334;SDS011;69435;52.670;13.544;2023-05-07T05:44:02;8.27;;;7.00;;
21334;SDS011;69435;52.670;13.544;2023-05-07T05:46:48;8.10;;;7.40;;
21334;SDS011;69435;52.670;13.544;2023-05-07T05:49:37;7.37;;;6.70;;
21334;SDS011;69435;52.670;13.544;2023-05-07T05:52:23;7.33;;;6.60;;
21334;SDS011;69435;52.670;13.544;2023-05-07T05:55:09;7.80;;;7.10;;
21334;SDS011;69435;52.670;13.544;2023-05-07T05:57:55;7.47;;;6.80;;
21334;SDS011;69435;52.670;13.544;2023-05-07T06:00:41;7.53;;;6.83;;
21334;SDS011;69435;52.670;13.544;2023-05-07T06:03:27;8.47;;;7.13;;
21334;SDS011;69435;52.670;13.544;2023-05-07T06:06:14;6.93;;;6.40;;
21334;SDS011;69435;52.670;13.544;2023-05-07T06:08:59;8.33;;;7.70;;
21334;SDS011;69435;52.670;13.544;2023-05-07T06:11:45;10.90;;;8.30;;
21334;SDS011;69435;52.670;13.544;2023-05-07T06:14:31;7.23;;;6.27;;
21334;SDS011;69435;52.670;13.544;2023-05-07T06:17:17;6.90;;;6.20;;
21334;SDS011;69435;52.670;13.544;2023-05-07T06:20:03;7.23;;;6.57;;
21334;SDS011;69435;52.670;13.544;2023-05-07T06:22:50;7.60;;;6.13;;
21334;SDS011;69435;52.670;13.544;2023-05-07T06:25:36;7.50;;;6.90;;
21334;SDS011;69435;52.670;13.544;2023-05-07T06:28:22;6.33;;;5.80;;
21334;SDS011;69435;52.670;13.544;2023-05-07T06:31:15;6.90;;;5.63;;
21334;SDS011;69435;52.670;13.544;2023-05-07T06:34:05;6.60;;;6.00;;
21334;SDS011;69435;52.670;13.544;2023-05-07T06:36:51;6.73;;;6.13;;
21334;SDS011;69435;52.670;13.544;2023-05-07T06:39:37;6.23;;;5.47;;
21334;SDS011;69435;52.670;13.544;2023-05-07T06:42:23;7.13;;;6.47;;
21334;SDS011;69435;52.670;13.544;2023-05-07T06:45:09;6.23;;;5.63;;
21334;SDS011;69435;52.670;13.544;2023-05-07T06:47:55;6.37;;;5.80;;
21334;SDS011;69435;52.670;13.544;2023-05-07T06:50:41;6.30;;;5.80;;
21334;SDS011;69435;52.670;13.544;2023-05-07T06:53:28;6.17;;;5.60;;
21334;SDS011;69435;52.670;13.544;2023-05-07T06:56:15;7.30;;;6.00;;
21334;SDS011;69435;52.670;13.544;2023-05-07T06:59:01;5.53;;;5.03;;
21334;SDS011;69435;52.670;13.544;2023-05-07T07:01:48;8.23;;;5.40;;
21334;SDS011;69435;52.670;13.544;2023-05-07T07:04:34;6.07;;;5.47;;
21334;SDS011;69435;52.670;13.544;2023-05-07T07:07:20;5.00;;;4.57;;
21334;SDS011;69435;52.670;13.544;2023-05-07T07:10:07;4.60;;;4.30;;
21334;SDS011;69435;52.670;13.544;2023-05-07T07:12:54;5.40;;;4.77;;
21334;SDS011;69435;52.670;13.544;2023-05-07T07:15:40;4.97;;;4.57;;
21334;SDS011;69435;52.670;13.544;2023-05-07T07:18:26;4.87;;;3.87;;
21334;SDS011;69435;52.670;13.544;2023-05-07T07:21:11;3.60;;;3.30;;
21334;SDS011;69435;52.670;13.544;2023-05-07T07:23:57;4.20;;;3.80;;
21334;SDS011;69435;52.670;13.544;2023-05-07T07:26:43;4.10;;;3.50;;
21334;SDS011;69435;52.670;13.544;2023-05-07T07:29:29;3.53;;;3.23;;
21334;SDS011;69435;52.670;13.544;2023-05-07T07:32:15;3.43;;;3.13;;
21334;SDS011;69435;52.670;13.544;2023-05-07T07:35:01;3.87;;;3.57;;
21334;SDS011;69435;52.670;13.544;2023-05-07T07:37:48;3.27;;;2.97;;
21334;SDS011;69435;52.670;13.544;2023-05-07T07:40:35;3.40;;;3.20;;
21334;SDS011;69435;52.670;13.544;2023-05-07T07:43:21;3.10;;;2.90;;
21334;SDS011;69435;52.670;13.544;2023-05-07T07:46:07;3.20;;;2.90;;
21334;SDS011;69435;52.670;13.544;2023-05-07T07:48:53;2.80;;;2.60;;
21334;SDS011;69435;52.670;13.544;2023-05-07T07:51:39;3.43;;;3.13;;
21334;SDS011;69435;52.670;13.544;2023-05-07T07:54:25;2.90;;;2.70;;
21334;SDS011;69435;52.670;13.544;2023-05-07T07:57:11;3.27;;;2.60;;
21334;SDS011;69435;52.670;13.544;2023-05-07T07:59:57;2.87;;;2.67;;
21334;SDS011;69435;52.670;13.544;2023-05-07T08:02:45;2.90;;;2.70;;
21334;SDS011;69435;52.670;13.544;2023-05-07T08:05:51;3.33;;;3.00;;
21334;SDS011;69435;52.670;13.544;2023-05-07T08:08:38;4.30;;;3.10;;
21334;SDS011;69435;52.670;13.544;2023-05-07T08:11:23;2.53;;;2.37;;
21334;SDS011;69435;52.670;13.544;2023-05-07T08:14:11;2.53;;;2.43;;
21334;SDS011;69435;52.670;13.544;2023-05-07T08:16:57;3.13;;;2.93;;
21334;SDS011;69435;52.670;13.544;2023-05-07T08:19:43;3.37;;;2.53;;
21334;SDS011;69435;52.670;13.544;2023-05-07T08:22:29;5.03;;;2.87;;
21334;SDS011;69435;52.670;13.544;2023-05-07T08:25:15;3.50;;;2.77;;
21334;SDS011;69435;52.670;13.544;2023-05-07T08:28:01;3.53;;;2.83;;
21334;SDS011;69435;52.670;13.544;2023-05-07T08:30:48;2.67;;;2.47;;
21334;SDS011;69435;52.670;13.544;2023-05-07T08:33:34;4.72;;;2.67;;
21334;SDS011;69435;52.670;13.544;2023-05-07T08:36:20;3.35;;;3.05;;
21334;SDS011;69435;52.670;13.544;2023-05-07T08:39:07;2.70;;;2.50;;
21334;SDS011;69435;52.670;13.544;2023-05-07T08:41:54;2.88;;;2.67;;
21334;SDS011;69435;52.670;13.544;2023-05-07T08:44:44;2.78;;;2.42;;
21334;SDS011;69435;52.670;13.544;2023-05-07T08:47:34;3.25;;;2.72;;
21334;SDS011;69435;52.670;13.544;2023-05-07T08:50:30;2.97;;;2.78;;
21334;SDS011;69435;52.670;13.544;2023-05-07T08:53:20;2.78;;;2.58;;
21334;SDS011;69435;52.670;13.544;2023-05-07T08:56:08;3.88;;;2.70;;
21334;SDS011;69435;52.670;13.544;2023-05-07T08:58:55;2.80;;;2.60;;
21334;SDS011;69435;52.670;13.544;2023-05-07T09:01:45;3.40;;;2.67;;
21334;SDS011;69435;52.670;13.544;2023-05-07T09:04:32;4.25;;;2.33;;
21334;SDS011;69435;52.670;13.544;2023-05-07T09:07:19;2.78;;;2.50;;
21334;SDS011;69435;52.670;13.544;2023-05-07T09:10:05;2.80;;;2.60;;
21334;SDS011;69435;52.670;13.544;2023-05-07T09:12:52;2.75;;;2.58;;
21334;SDS011;69435;52.670;13.544;2023-05-07T09:15:39;3.00;;;2.80;;
21334;SDS011;69435;52.670;13.544;2023-05-07T09:18:25;2.80;;;2.60;;
21334;SDS011;69435;52.670;13.544;2023-05-07T09:21:14;2.80;;;2.60;;
21334;SDS011;69435;52.670;13.544;2023-05-07T09:24:01;2.63;;;2.43;;
21334;SDS011;69435;52.670;13.544;2023-05-07T09:26:48;2.77;;;2.57;;
21334;SDS011;69435;52.670;13.544;2023-05-07T09:29:34;2.73;;;2.50;;
21334;SDS011;69435;52.670;13.544;2023-05-07T09:32:20;3.13;;;2.87;;
21334;SDS011;69435;52.670;13.544;2023-05-07T09:35:14;2.73;;;2.53;;
21334;SDS011;69435;52.670;13.544;2023-05-07T09:38:02;3.63;;;2.40;;
21334;SDS011;69435;52.670;13.544;2023-05-07T09:40:52;3.83;;;2.60;;
21334;SDS011;69435;52.670;13.544;2023-05-07T09:43:55;5.40;;;2.43;;
21334;SDS011;69435;52.670;13.544;2023-05-07T09:46:42;2.30;;;2.20;;
21334;SDS011;69435;52.670;13.544;2023-05-07T09:49:35;2.70;;;2.60;;
21334;SDS011;69435;52.670;13.544;2023-05-07T09:52:24;3.10;;;2.40;;
21334;SDS011;69435;52.670;13.544;2023-05-07T09:55:15;2.77;;;2.60;;
21334;SDS011;69435;52.670;13.544;2023-05-07T09:58:01;2.40;;;2.20;;
21334;SDS011;69435;52.670;13.544;2023-05-07T10:00:50;3.27;;;2.10;;
21334;SDS011;69435;52.670;13.544;2023-05-07T10:03:41;2.60;;;2.40;;
21334;SDS011;69435;52.670;13.544;2023-05-07T10:06:28;2.47;;;2.27;;
21334;SDS011;69435;52.670;13.544;2023-05-07T10:09:15;2.80;;;2.60;;
21334;SDS011;69435;52.670;13.544;2023-05-07T10:12:02;2.50;;;2.40;;
21334;SDS011;69435;52.670;13.544;2023-05-07T10:14:49;2.00;;;1.90;;
21334;SDS011;69435;52.670;13.544;2023-05-07T10:17:38;3.80;;;2.27;;
21334;SDS011;69435;52.670;13.544;2023-05-07T10:20:26;2.00;;;1.90;;
21334;SDS011;69435;52.670;13.544;2023-05-07T10:23:13;2.80;;;2.23;;
21334;SDS011;69435;52.670;13.544;2023-05-07T10:26:07;2.50;;;2.30;;
21334;SDS011;69435;52.670;13.544;2023-05-07T10:29:04;2.90;;;2.03;;
21334;SDS011;69435;52.670;13.544;2023-05-07T10:35:29;2.10;;;2.00;;
21334;SDS011;69435;52.670;13.544;2023-05-07T10:38:27;1.60;;;1.53;;
21334;SDS011;69435;52.670;13.544;2023-05-07T10:41:14;1.90;;;1.80;;
21334;SDS011;69435;52.670;13.544;2023-05-07T10:44:02;2.13;;;2.03;;
21334;SDS011;69435;52.670;13.544;2023-05-07T10:47:11;2.17;;;1.90;;
21334;SDS011;69435;52.670;13.544;2023-05-07T10:59:30;2.87;;;2.67;;
21334;SDS011;69435;52.670;13.544;2023-05-07T11:02:17;1.97;;;1.87;;
21334;SDS011;69435;52.670;13.544;2023-05-07T11:05:19;1.90;;;1.80;;
21334;SDS011;69435;52.670;13.544;2023-05-07T11:08:09;2.67;;;1.73;;
21334;SDS011;69435;52.670;13.544;2023-05-07T11:10:55;1.97;;;1.70;;
21334;SDS011;69435;52.670;13.544;2023-05-07T11:13:44;2.10;;;1.90;;
21334;SDS011;69435;52.670;13.544;2023-05-07T11:16:34;1.70;;;1.60;;
21334;SDS011;69435;52.670;13.544;2023-05-07T11:22:37;3.13;;;2.03;;
21334;SDS011;69435;52.670;13.544;2023-05-07T11:25:25;1.80;;;1.70;;
21334;SDS011;69435;52.670;13.544;2023-05-07T11:28:11;2.00;;;1.90;;
21334;SDS011;69435;52.670;13.544;2023-05-07T11:30:58;2.20;;;2.00;;
21334;SDS011;69435;52.670;13.544;2023-05-07T11:33:45;2.13;;;1.93;;
21334;SDS011;69435;52.670;13.544;2023-05-07T11:36:32;1.80;;;1.70;;
21334;SDS011;69435;52.670;13.544;2023-05-07T11:39:28;2.13;;;2.00;;
21334;SDS011;69435;52.670;13.544;2023-05-07T11:45:23;1.90;;;1.80;;
21334;SDS011;69435;52.670;13.544;2023-05-07T11:48:13;2.17;;;1.87;;
21334;SDS011;69435;52.670;13.544;2023-05-07T11:51:04;1.60;;;1.50;;
21334;SDS011;69435;52.670;13.544;2023-05-07T11:53:51;2.00;;;1.90;;
21334;SDS011;69435;52.670;13.544;2023-05-07T11:56:40;5.40;;;1.97;;
21334;SDS011;69435;52.670;13.544;2023-05-07T11:59:26;1.77;;;1.67;;
21334;SDS011;69435;52.670;13.544;2023-05-07T12:02:13;2.07;;;1.90;;
21334;SDS011;69435;52.670;13.544;2023-05-07T12:05:00;1.80;;;1.70;;
21334;SDS011;69435;52.670;13.544;2023-05-07T12:07:47;1.80;;;1.70;;
21334;SDS011;69435;52.670;13.544;2023-05-07T12:10:34;2.27;;;1.60;;
21334;SDS011;69435;52.670;13.544;2023-05-07T12:13:21;2.97;;;1.97;;
21334;SDS011;69435;52.670;13.544;2023-05-07T12:16:10;3.83;;;1.83;;
21334;SDS011;69435;52.670;13.544;2023-05-07T12:18:56;3.30;;;2.13;;
21334;SDS011;69435;52.670;13.544;2023-05-07T12:21:44;1.77;;;1.67;;
21334;SDS011;69435;52.670;13.544;2023-05-07T12:24:46;2.00;;;1.80;;
21334;SDS011;69435;52.670;13.544;2023-05-07T12:27:36;2.73;;;1.90;;
21334;SDS011;69435;52.670;13.544;2023-05-07T12:30:23;2.10;;;2.00;;
21334;SDS011;69435;52.670;13.544;2023-05-07T12:33:11;1.87;;;1.77;;
21334;SDS011;69435;52.670;13.544;2023-05-07T12:35:57;2.00;;;1.90;;
21334;SDS011;69435;52.670;13.544;2023-05-07T12:38:49;2.73;;;1.70;;
21334;SDS011;69435;52.670;13.544;2023-05-07T12:41:36;1.57;;;1.50;;
21334;SDS011;69435;52.670;13.544;2023-05-07T12:44:45;2.57;;;1.90;;
21334;SDS011;69435;52.670;13.544;2023-05-07T12:47:32;4.63;;;1.70;;
21334;SDS011;69435;52.670;13.544;2023-05-07T12:50:18;3.47;;;1.93;;
21334;SDS011;69435;52.670;13.544;2023-05-07T12:53:07;2.77;;;2.07;;
21334;SDS011;69435;52.670;13.544;2023-05-07T12:55:58;2.90;;;1.90;;
21334;SDS011;69435;52.670;13.544;2023-05-07T12:58:45;2.23;;;2.03;;
21334;SDS011;69435;52.670;13.544;2023-05-07T13:01:34;2.70;;;2.00;;
21334;SDS011;69435;52.670;13.544;2023-05-07T13:04:20;3.67;;;1.87;;
21334;SDS011;69435;52.670;13.544;2023-05-07T13:07:10;2.07;;;1.97;;
21334;SDS011;69435;52.670;13.544;2023-05-07T13:09:56;2.30;;;1.90;;
21334;SDS011;69435;52.670;13.544;2023-05-07T13:12:42;2.17;;;1.97;;
21334;SDS011;69435;52.670;13.544;2023-05-07T13:15:28;2.00;;;1.90;;
21334;SDS011;69435;52.670;13.544;2023-05-07T13:18:14;3.60;;;1.90;;
21334;SDS011;69435;52.670;13.544;2023-05-07T13:21:00;3.97;;;2.27;;
21334;SDS011;69435;52.670;13.544;2023-05-07T13:23:47;3.53;;;2.10;;
21334;SDS011;69435;52.670;13.544;2023-05-07T13:26:33;3.13;;;2.33;;
21334;SDS011;69435;52.670;13.544;2023-05-07T13:29:19;2.20;;;1.90;;
21334;SDS011;69435;52.670;13.544;2023-05-07T13:32:09;3.97;;;2.00;;
21334;SDS011;69435;52.670;13.544;2023-05-07T13:34:55;2.20;;;2.10;;
21334;SDS011;69435;52.670;13.544;2023-05-07T13:37:41;1.90;;;1.80;;
21334;SDS011;69435;52.670;13.544;2023-05-07T13:40:28;3.20;;;1.97;;
21334;SDS011;69435;52.670;13.544;2023-05-07T13:43:15;2.03;;;1.83;;
21334;SDS011;69435;52.670;13.544;2023-05-07T13:46:02;2.30;;;2.10;;
21334;SDS011;69435;52.670;13.544;2023-05-07T13:48:48;2.63;;;2.03;;
21334;SDS011;69435;52.670;13.544;2023-05-07T13:51:38;2.23;;;2.00;;
21334;SDS011;69435;52.670;13.544;2023-05-07T13:54:23;9.47;;;2.57;;
21334;SDS011;69435;52.670;13.544;2023-05-07T13:57:09;2.90;;;1.93;;
21334;SDS011;69435;52.670;13.544;2023-05-07T13:59:55;4.37;;;2.10;;
21334;SDS011;69435;52.670;13.544;2023-05-07T14:02:41;2.50;;;2.10;;
21334;SDS011;69435;52.670;13.544;2023-05-07T14:05:27;1.90;;;1.80;;
21334;SDS011;69435;52.670;13.544;2023-05-07T14:08:13;2.63;;;1.90;;
21334;SDS011;69435;52.670;13.544;2023-05-07T14:11:00;2.00;;;1.83;;
21334;SDS011;69435;52.670;13.544;2023-05-07T14:13:46;1.60;;;1.50;;
21334;SDS011;69435;52.670;13.544;2023-05-07T14:16:32;2.77;;;1.87;;
21334;SDS011;69435;52.670;13.544;2023-05-07T14:19:20;2.07;;;1.77;;
21334;SDS011;69435;52.670;13.544;2023-05-07T14:22:07;1.70;;;1.60;;
21334;SDS011;69435;52.670;13.544;2023-05-07T14:24:53;1.63;;;1.53;;
21334;SDS011;69435;52.670;13.544;2023-05-07T14:27:39;1.70;;;1.60;;
21334;SDS011;69435;52.670;13.544;2023-05-07T14:30:26;3.47;;;1.50;;
21334;SDS011;69435;52.670;13.544;2023-05-07T14:33:12;1.60;;;1.50;;
21334;SDS011;69435;52.670;13.544;2023-05-07T14:35:58;6.83;;;1.70;;
21334;SDS011;69435;52.670;13.544;2023-05-07T14:38:44;1.53;;;1.43;;
21334;SDS011;69435;52.670;13.544;2023-05-07T14:41:30;1.73;;;1.63;;
21334;SDS011;69435;52.670;13.544;2023-05-07T14:44:17;1.50;;;1.40;;
21334;SDS011;69435;52.670;13.544;2023-05-07T14:47:03;1.67;;;1.40;;
21334;SDS011;69435;52.670;13.544;2023-05-07T14:49:50;1.63;;;1.23;;
21334;SDS011;69435;52.670;13.544;2023-05-07T14:52:36;2.90;;;1.17;;
21334;SDS011;69435;52.670;13.544;2023-05-07T14:55:23;2.70;;;1.53;;
21334;SDS011;69435;52.670;13.544;2023-05-07T14:58:10;1.60;;;1.50;;
21334;SDS011;69435;52.670;13.544;2023-05-07T15:00:56;1.70;;;1.60;;
21334;SDS011;69435;52.670;13.544;2023-05-07T15:03:44;1.20;;;1.20;;
21334;SDS011;69435;52.670;13.544;2023-05-07T15:06:30;1.43;;;1.13;;
21334;SDS011;69435;52.670;13.544;2023-05-07T15:09:17;1.50;;;1.37;;
21334;SDS011;69435;52.670;13.544;2023-05-07T15:12:03;2.23;;;1.20;;
21334;SDS011;69435;52.670;13.544;2023-05-07T15:14:49;3.07;;;1.20;;
21334;SDS011;69435;52.670;13.544;2023-05-07T15:17:35;1.07;;;1.07;;
21334;SDS011;69435;52.670;13.544;2023-05-07T15:20:20;2.27;;;1.07;;
21334;SDS011;69435;52.670;13.544;2023-05-07T15:23:07;1.30;;;1.20;;
21334;SDS011;69435;52.670;13.544;2023-05-07T15:25:59;1.10;;;1.10;;
21334;SDS011;69435;52.670;13.544;2023-05-07T15:28:46;1.43;;;1.27;;
21334;SDS011;69435;52.670;13.544;2023-05-07T15:31:32;2.70;;;1.20;;
21334;SDS011;69435;52.670;13.544;2023-05-07T15:34:18;1.97;;;1.80;;
21334;SDS011;69435;52.670;13.544;2023-05-07T15:37:04;3.93;;;3.63;;
21334;SDS011;69435;52.670;13.544;2023-05-07T15:39:50;2.40;;;2.20;;
21334;SDS011;69435;52.670;13.544;2023-05-07T15:42:36;2.87;;;2.60;;
21334;SDS011;69435;52.670;13.544;2023-05-07T15:45:23;2.63;;;2.43;;
21334;SDS011;69435;52.670;13.544;2023-05-07T15:48:09;3.43;;;2.43;;
21334;SDS011;69435;52.670;13.544;2023-05-07T15:50:56;5.33;;;1.73;;
21334;SDS011;69435;52.670;13.544;2023-05-07T15:53:42;1.83;;;1.70;;
21334;SDS011;69435;52.670;13.544;2023-05-07T15:56:28;2.07;;;1.97;;
21334;SDS011;69435;52.670;13.544;2023-05-07T15:59:17;1.50;;;1.40;;
21334;SDS011;69435;52.670;13.544;2023-05-07T16:02:03;1.50;;;1.40;;
21334;SDS011;69435;52.670;13.544;2023-05-07T16:04:49;1.87;;;1.50;;
21334;SDS011;69435;52.670;13.544;2023-05-07T16:07:36;1.30;;;1.30;;
21334;SDS011;69435;52.670;13.544;2023-05-07T16:10:22;1.80;;;1.70;;
21334;SDS011;69435;52.670;13.544;2023-05-07T16:13:09;1.70;;;1.40;;
21334;SDS011;69435;52.670;13.544;2023-05-07T16:15:56;1.53;;;1.43;;
21334;SDS011;69435;52.670;13.544;2023-05-07T16:18:43;10.40;;;2.67;;
21334;SDS011;69435;52.670;13.544;2023-05-07T16:21:29;1.53;;;1.27;;
21334;SDS011;69435;52.670;13.544;2023-05-07T16:24:15;1.20;;;1.17;;
21334;SDS011;69435;52.670;13.544;2023-05-07T16:27:01;3.07;;;1.50;;
21334;SDS011;69435;52.670;13.544;2023-05-07T16:29:47;1.17;;;1.07;;
21334;SDS011;69435;52.670;13.544;2023-05-07T16:32:33;1.50;;;1.40;;
21334;SDS011;69435;52.670;13.544;2023-05-07T16:35:20;1.50;;;1.50;;
21334;SDS011;69435;52.670;13.544;2023-05-07T16:38:06;1.93;;;1.53;;
21334;SDS011;69435;52.670;13.544;2023-05-07T16:40:54;2.17;;;1.50;;
21334;SDS011;69435;52.670;13.544;2023-05-07T16:43:40;3.87;;;1.53;;
21334;SDS011;69435;52.670;13.544;2023-05-07T16:46:26;1.90;;;1.70;;
21334;SDS011;69435;52.670;13.544;2023-05-07T16:49:12;1.47;;;1.37;;